• Join FlightAware (Why Join?)
  • Login
  • US Flag 
11:13AM EDT


 

Airport Tracker/Info


-or-


 

Live Flight TrackerFlight Track Log ✈ SWA714 ✈ 08-Apr-2013 ✈ KSAT - KDAL

Flight Track Log - Related Links

Times and Time Zones

All times are in EDT time to prevent confusion due to time zone crossing. See the SWA714 flight status page for this flight to view local times or setup timezone preferences in your user account.

Time Position Orientation Groundspeed Altitude Reporting Facility
EDT Latitude Longitude Course Direction KTS MPH feet Rate Location/Type
04:06PM 29.5247 -98.4636 125° Southeast 156 180 1,500  Level Houston Center
04:07PM 29.5039 -98.4289 125° Southeast 170 196 2,800 2,220 Climbing Houston Center
04:08PM 29.5086 -98.3575 86° East 262 302 5,800 2,520 Climbing Houston Center
04:09PM 29.5786 -98.3586 359° North 280 322 8,100 2,460 Climbing Houston Center
04:10PM 29.6714 -98.3642 357° North 312 359 10,700 2,580 Climbing Houston Center
04:11PM 29.7700 -98.3708 357° North 352 405 13,500 2,760 Climbing Houston Center
04:12PM 29.8792 -98.3778 357° North 365 420 16,500 2,760 Climbing Houston Center
04:13PM 29.9847 -98.3853 356° North 379 436 19,300 2,340 Climbing Houston Center
04:14PM 30.1031 -98.3922 357° North 395 455 21,400 1,740 Climbing Houston Center
04:15PM 30.2183 -98.3769 North 414 476 23,000 1,740 Climbing Houston Center
04:16PM 30.3292 -98.3608 North 424 488 25,000 1,560 Climbing Houston Center
04:17PM 30.4494 -98.3428 North 428 493 26,300 1,320 Climbing Houston Center
04:18PM 30.5753 -98.3250 North 444 511 27,800 720 Climbing Houston Center
04:19PM 30.7236 -98.3028 North 451 519 27,900  Climbing Houston Center
04:20PM 30.8528 -98.2833 North 457 526 27,900  Level Houston Center
04:21PM 30.8972 -98.2800 North 452 520 27,900  Level Fort Worth Center
04:22PM 31.0247 -98.2594 North 463 533 27,900  Level Fort Worth Center
04:23PM 31.1522 -98.2339 10° North 463 533 27,900  Level Fort Worth Center
04:24PM 31.2631 -98.1958 16° North 463 533 27,900  Level Fort Worth Center
04:25PM 31.3886 -98.1508 17° North 469 540 27,900  Level Fort Worth Center
04:26PM 31.5161 -98.1056 17° North 469 540 27,900  Level Fort Worth Center
04:27PM 31.6375 -98.0478 22° Northeast 476 548 27,900 -900 Level Fort Worth Center
04:28PM 31.7547 -97.9753 28° Northeast 470 541 26,100 -2,100 Descending Fort Worth Center
04:29PM 31.8761 -97.8978 28° Northeast 465 535 23,700 -2,460 Descending Fort Worth Center
04:30PM 31.9808 -97.8272 30° Northeast 436 502 21,200 -2,280 Descending Fort Worth Center
04:31PM 32.0731 -97.7689 28° Northeast 422 486 19,200 -2,400 Descending Fort Worth Center
04:32PM 32.1817 -97.6956 30° Northeast 416 479 16,500 -2,400 Descending Fort Worth Center
04:33PM 32.2736 -97.6369 28° Northeast 416 479 14,400 -2,220 Descending Fort Worth Center
04:34PM 32.3781 -97.5683 29° Northeast 394 453 12,100 -1,740 Descending Fort Worth Center
04:35PM 32.4681 -97.5069 30° Northeast 383 441 11,000 -600 Descending Fort Worth Center
04:36PM 32.5306 -97.4306 46° Northeast 332 382 11,000  Level Fort Worth Center
04:37PM 32.5975 -97.3542 44° Northeast 327 376 11,000  Level Fort Worth Center
04:38PM 32.6622 -97.2778 45° Northeast 327 376 11,000 -60 Level Fort Worth Center
04:39PM 32.7225 -97.1986 48° Northeast 327 376 10,900 -540 Descending Fort Worth Center
04:40PM 32.7872 -97.1711 20° North 272 313 10,000 -1,200 Descending Fort Worth Center
04:41PM 32.8625 -97.1783 355° North 267 307 8,600 -1,800 Descending Fort Worth Center
04:42PM 32.9081 -97.1239 45° Northeast 225 259 6,400 -1,980 Descending Fort Worth Center
04:42PM 32.9167 -97.0833 76° East 245 282 5,900 -1,440 Descending Dallas / Fort Worth TRACON
04:43PM 32.9333 -97.0167 73° East 210 242 4,500 -1,200 Descending Dallas / Fort Worth TRACON
04:44PM 32.9500 -96.9667 68° East 192 221 3,600 -720 Descending Dallas / Fort Worth TRACON
04:45PM 32.9500 -96.9167 90° East 185 213 3,100 -780 Descending Dallas / Fort Worth TRACON
04:46PM 32.9333 -96.9500 239° Southwest 155 178 2,100 -600 Descending Dallas / Fort Worth TRACON
04:47PM 32.9000 -96.9167 140° Southeast 140 161 1,900 -540 Descending Dallas / Fort Worth TRACON
04:48PM 32.8667 -96.8833 140° Southeast 133 153 1,100 -840 Descending Dallas / Fort Worth TRACON
04:50PM 32.8471 -96.8518 109° East  Level Estimated
04:57PM 32.8471 -96.8518 109° East  Level Estimated